createdAt,value
2023-04-29T18:32:57.385Z,66.76
2023-04-29T18:33:58.364Z,66.76
2023-04-29T18:34:58.347Z,66.46
2023-04-29T18:35:58.339Z,66.66
2023-04-29T18:36:58.323Z,66.96
2023-04-29T18:37:58.326Z,66.46
2023-04-29T18:38:58.300Z,66.35
2023-04-29T18:39:58.332Z,66.99
2023-04-29T18:40:58.281Z,66.79
2023-04-29T18:41:58.276Z,66.79
2023-04-29T18:42:58.261Z,66.49
2023-04-29T18:43:58.250Z,66.49
2023-04-29T18:44:58.232Z,66.92
2023-04-29T18:45:58.254Z,66.82
2023-04-29T18:46:58.213Z,67.02
2023-04-29T18:47:58.277Z,67.33
2023-04-29T18:48:58.187Z,67.53
2023-04-29T18:49:58.280Z,67.83
2023-04-29T18:50:58.168Z,67.66
2023-04-29T18:51:58.159Z,67.77
2023-04-29T18:52:58.152Z,67.77
2023-04-29T18:53:58.138Z,67.66
2023-04-29T18:54:58.123Z,67.46
2023-04-29T18:55:58.109Z,67.77
2023-04-29T18:56:58.100Z,67.97
2023-04-29T18:57:58.104Z,67.57
2023-04-29T18:58:58.082Z,67.87
2023-04-29T18:59:58.069Z,68.01
2023-04-29T19:00:58.078Z,67.60
2023-04-29T19:01:58.201Z,67.80
2023-04-29T19:02:58.078Z,67.90
2023-04-29T19:03:58.085Z,68.01
2023-04-29T19:04:58.074Z,68.01
2023-04-29T19:05:58.047Z,67.60
2023-04-29T19:06:57.988Z,67.29
2023-04-29T19:07:57.994Z,67.32
2023-04-29T19:08:57.969Z,67.32
2023-04-29T19:09:57.962Z,67.22
2023-04-29T19:11:00.551Z,66.71
2023-04-29T19:11:57.937Z,66.61
2023-04-29T19:12:57.934Z,67.32
2023-04-29T19:13:57.928Z,67.12
2023-04-29T19:14:57.901Z,66.91
2023-04-29T19:15:57.935Z,67.02
2023-04-29T19:16:57.882Z,67.35
2023-04-29T19:17:57.895Z,67.15
2023-04-29T19:18:57.862Z,67.05
2023-04-29T19:19:57.848Z,66.94
2023-04-29T19:20:57.834Z,66.85
2023-04-29T19:21:57.826Z,66.85
2023-04-29T19:22:57.820Z,67.35
2023-04-29T19:23:57.803Z,67.35
2023-04-29T19:24:57.796Z,67.55
2023-04-29T19:25:57.789Z,67.69
2023-04-29T19:26:57.767Z,68.20
2023-04-29T19:27:57.786Z,67.79
2023-04-29T19:28:57.754Z,68.10
2023-04-29T19:29:57.739Z,67.90
2023-04-29T19:30:57.730Z,67.99
2023-04-29T19:31:57.714Z,68.23
2023-04-29T19:32:57.759Z,68.44
2023-04-29T19:33:57.691Z,68.33
2023-04-29T19:34:57.676Z,68.54
2023-04-29T19:35:57.693Z,68.84
2023-04-29T19:36:57.662Z,68.95
2023-04-29T19:37:57.661Z,69.35
2023-04-29T19:38:57.724Z,69.69
2023-04-29T19:39:57.629Z,69.38
2023-04-29T19:40:57.614Z,69.59
2023-04-29T19:41:57.620Z,69.38
2023-04-29T19:42:57.598Z,70.31
2023-04-29T19:43:57.593Z,70.00
2023-04-29T19:44:57.581Z,70.00
2023-04-29T19:45:57.563Z,70.10
2023-04-29T19:46:57.806Z,70.92
2023-04-29T19:47:57.576Z,70.85
2023-04-29T19:48:57.522Z,71.87
2023-04-29T19:49:57.519Z,72.07
2023-04-29T19:50:57.501Z,72.11
2023-04-29T19:51:57.498Z,73.03
2023-04-29T19:52:57.489Z,74.25
2023-04-29T19:53:57.473Z,74.35
2023-04-29T19:54:57.464Z,74.80
2023-04-29T19:55:57.454Z,74.49
2023-04-29T19:56:57.435Z,74.80
2023-04-29T19:57:57.457Z,75.41
2023-04-29T19:58:57.412Z,75.51
2023-04-29T19:59:57.405Z,74.11
2023-04-29T20:00:57.412Z,74.22
2023-04-29T20:01:57.421Z,74.84
2023-04-29T20:02:57.420Z,74.11
2023-04-29T20:03:57.373Z,74.11
2023-04-29T20:04:57.350Z,74.63
2023-04-29T20:05:57.382Z,75.75
2023-04-29T20:06:57.324Z,76.26
2023-04-29T20:07:57.332Z,76.67
2023-04-29T20:08:57.312Z,75.68
2023-04-29T20:09:57.300Z,76.40
2023-04-29T20:10:57.281Z,75.59
2023-04-29T20:11:57.274Z,74.87
2023-04-29T20:12:57.265Z,74.26
2023-04-29T20:13:57.253Z,74.97
2023-04-29T20:14:57.232Z,74.32
2023-04-29T20:15:57.250Z,74.22
2023-04-29T20:17:00.220Z,74.43
2023-04-29T20:17:57.232Z,73.71
2023-04-29T20:18:57.201Z,73.81
2023-04-29T20:19:57.178Z,73.20
2023-04-29T20:20:57.197Z,73.50
2023-04-29T20:21:57.171Z,72.89
2023-04-29T20:22:57.153Z,72.58
2023-04-29T20:23:57.165Z,72.75
2023-04-29T20:24:57.123Z,73.10
2023-04-29T20:25:57.124Z,72.99
2023-04-29T20:26:57.091Z,73.20
2023-04-29T20:27:57.090Z,73.30
2023-04-29T20:28:57.088Z,73.61
2023-04-29T20:29:57.356Z,74.11
2023-04-29T20:30:57.079Z,74.02
2023-04-29T20:31:57.106Z,74.22
2023-04-29T20:32:57.072Z,74.32
2023-04-29T20:33:57.064Z,74.73
2023-04-29T20:34:57.009Z,74.87
2023-04-29T20:35:57.001Z,74.87
2023-04-29T20:36:56.987Z,74.93
2023-04-29T20:37:56.980Z,75.04
2023-04-29T20:38:56.973Z,75.27
2023-04-29T20:39:56.982Z,75.59
2023-04-29T20:40:56.960Z,75.89
2023-04-29T20:41:56.934Z,76.30
2023-04-29T20:42:56.917Z,76.50
2023-04-29T20:43:56.942Z,76.81
2023-04-29T20:44:56.912Z,76.91
2023-04-29T20:45:56.936Z,77.32
2023-04-29T20:46:56.879Z,77.32
2023-04-29T20:47:56.923Z,77.73
2023-04-29T20:48:56.868Z,77.94
2023-04-29T20:49:56.865Z,78.14
2023-04-29T20:50:56.838Z,78.45
2023-04-29T20:51:56.837Z,78.79
2023-04-29T20:52:56.861Z,79.00
2023-04-29T20:53:56.833Z,79.30
2023-04-29T20:54:56.790Z,79.50
2023-04-29T20:55:56.785Z,79.71
2023-04-29T20:56:56.787Z,79.91
2023-04-29T20:57:56.816Z,80.12
2023-04-29T20:58:56.766Z,80.43
2023-04-29T20:59:56.899Z,80.53
2023-04-29T21:00:56.740Z,80.74
2023-04-29T21:01:56.823Z,80.88
2023-04-29T21:02:56.726Z,81.29
2023-04-29T21:03:56.716Z,81.38
2023-04-29T21:04:56.718Z,81.70
2023-04-29T21:05:56.736Z,81.79
2023-04-29T21:06:56.672Z,82.10
2023-04-29T21:07:56.669Z,82.31
2023-04-29T21:08:56.673Z,82.31
2023-04-29T21:09:56.841Z,82.62
2023-04-29T21:10:56.620Z,82.71
2023-04-29T21:11:56.614Z,82.71
2023-04-29T21:12:56.600Z,82.92
2023-04-29T21:13:56.602Z,83.13
2023-04-29T21:14:56.574Z,83.23
2023-04-29T21:15:56.616Z,83.47
2023-04-29T21:16:56.556Z,83.47
2023-04-29T21:17:56.618Z,83.78
2023-04-29T21:18:56.555Z,83.78
2023-04-29T21:19:56.521Z,83.88
2023-04-29T21:20:56.513Z,84.09
2023-04-29T21:21:56.521Z,84.09
2023-04-29T21:22:56.497Z,84.29
2023-04-29T21:23:56.491Z,84.29
2023-04-29T21:24:56.469Z,84.50
2023-04-29T21:25:56.458Z,84.60
2023-04-29T21:26:56.448Z,84.60
2023-04-29T21:27:56.434Z,84.74
2023-04-29T21:28:56.494Z,84.95
2023-04-29T21:29:56.466Z,84.95
2023-04-29T21:30:56.434Z,85.05
2023-04-29T21:31:56.438Z,85.05
2023-04-29T21:32:56.441Z,85.25
2023-04-29T21:33:56.372Z,85.25
2023-04-29T21:34:56.360Z,85.36
2023-04-29T21:35:56.348Z,85.36
2023-04-29T21:36:56.338Z,85.56
2023-04-29T21:37:56.339Z,85.66
2023-04-29T21:38:56.323Z,85.71
2023-04-29T21:39:56.371Z,85.80
2023-04-29T21:40:56.291Z,86.01
2023-04-29T21:41:56.275Z,85.91
2023-04-29T21:42:56.264Z,86.01
2023-04-29T21:43:56.270Z,86.01
2023-04-29T21:44:56.245Z,86.01
2023-04-29T21:45:56.230Z,86.22
2023-04-29T21:46:56.328Z,86.22
2023-04-29T21:47:56.239Z,86.22
2023-04-29T21:48:56.216Z,86.22
2023-04-29T21:49:56.311Z,86.32
2023-04-29T21:50:56.186Z,86.32
2023-04-29T21:51:56.167Z,86.46
2023-04-29T21:52:56.173Z,86.66
2023-04-29T21:53:56.178Z,86.66
2023-04-29T21:54:56.143Z,86.77
2023-04-29T21:55:56.115Z,86.57
2023-04-29T21:56:56.117Z,86.66
2023-04-29T21:57:56.096Z,86.87
2023-04-29T21:58:56.103Z,86.98
2023-04-29T21:59:56.158Z,86.87
2023-04-29T22:00:56.134Z,86.98
2023-04-29T22:01:56.063Z,86.77
2023-04-29T22:02:56.132Z,86.98
2023-04-29T22:03:56.042Z,86.87
2023-04-29T22:04:56.067Z,86.87
2023-04-29T22:05:56.036Z,86.87
2023-04-29T22:06:56.000Z,86.98
2023-04-29T22:07:55.983Z,86.98
2023-04-29T22:08:55.998Z,86.98
2023-04-29T22:09:56.114Z,87.08
2023-04-29T22:10:55.952Z,87.08
2023-04-29T22:11:55.941Z,87.18
2023-04-29T22:12:55.937Z,87.28
2023-04-29T22:13:55.942Z,87.28
2023-04-29T22:14:55.913Z,87.32
2023-04-29T22:15:55.945Z,87.43
2023-04-29T22:16:55.890Z,87.53
2023-04-29T22:17:55.911Z,87.53
2023-04-29T22:18:55.880Z,87.63
2023-04-29T22:19:56.121Z,87.73
2023-04-29T22:20:55.852Z,87.73
2023-04-29T22:21:55.827Z,87.73
2023-04-29T22:22:55.822Z,87.73
2023-04-29T22:23:55.826Z,87.84
2023-04-29T22:24:55.812Z,87.94
2023-04-29T22:25:55.786Z,87.94
2023-04-29T22:26:55.777Z,87.94
2023-04-29T22:27:55.767Z,87.94
2023-04-29T22:28:55.773Z,88.18
2023-04-29T22:29:56.166Z,88.18
2023-04-29T22:30:55.733Z,88.29
2023-04-29T22:31:55.764Z,88.29
2023-04-29T22:32:55.732Z,88.49
2023-04-29T22:33:55.707Z,88.39
2023-04-29T22:34:57.100Z,88.49
2023-04-29T22:35:55.686Z,88.39
2023-04-29T22:36:55.667Z,88.49
2023-04-29T22:37:55.658Z,88.59
2023-04-29T22:38:55.656Z,88.59
2023-04-29T22:39:55.807Z,88.59
2023-04-29T22:40:55.697Z,88.59
2023-04-29T22:41:55.618Z,88.59
2023-04-29T22:42:55.600Z,88.74
2023-04-29T22:43:55.607Z,88.84
2023-04-29T22:44:55.585Z,89.04
2023-04-29T22:45:55.596Z,89.15
2023-04-29T22:46:55.558Z,89.15
2023-04-29T22:47:55.574Z,89.25
2023-04-29T22:48:55.543Z,89.46
2023-04-29T22:49:55.858Z,89.46
2023-04-29T22:50:55.509Z,89.46
2023-04-29T22:51:55.505Z,89.36
2023-04-29T22:52:55.497Z,89.36
2023-04-29T22:53:55.508Z,89.56
2023-04-29T22:54:55.467Z,89.46
2023-04-29T22:55:55.462Z,89.46
2023-04-29T22:56:55.444Z,89.56
2023-04-29T22:57:55.437Z,89.81
2023-04-29T22:58:55.433Z,89.81
2023-04-29T22:59:55.741Z,89.81
2023-04-29T23:00:55.440Z,89.91
2023-04-29T23:01:55.523Z,90.01
2023-04-29T23:02:55.425Z,90.12
2023-04-29T23:03:55.381Z,90.32
2023-04-29T23:04:55.519Z,90.32
2023-04-29T23:05:55.401Z,90.42
2023-04-29T23:06:55.339Z,90.53
2023-04-29T23:07:55.326Z,90.57
2023-04-29T23:08:55.332Z,90.47
2023-04-29T23:09:55.587Z,90.47
2023-04-29T23:10:55.303Z,90.47
2023-04-29T23:11:55.282Z,90.67
2023-04-29T23:12:55.281Z,90.88
2023-04-29T23:13:55.261Z,91.08
2023-04-29T23:14:55.244Z,91.08
2023-04-29T23:15:55.278Z,91.23
2023-04-29T23:16:55.226Z,91.33
2023-04-29T23:17:55.264Z,91.53
2023-04-29T23:18:55.206Z,91.64
2023-04-29T23:19:55.569Z,91.53
2023-04-29T23:20:55.178Z,91.53
2023-04-29T23:21:55.175Z,91.64
2023-04-29T23:22:55.172Z,91.64
2023-04-29T23:23:55.157Z,91.64
2023-04-29T23:24:55.145Z,91.64
2023-04-29T23:25:55.136Z,91.74
2023-04-29T23:26:55.118Z,91.74
2023-04-29T23:27:55.159Z,91.74
2023-04-29T23:28:55.091Z,91.99
2023-04-29T23:29:55.387Z,92.20
2023-04-29T23:30:55.092Z,92.30
2023-04-29T23:31:55.066Z,92.40
2023-04-29T23:32:55.134Z,92.50
2023-04-29T23:33:55.063Z,92.50
2023-04-29T23:34:55.030Z,92.61
2023-04-29T23:35:55.018Z,92.55
2023-04-29T23:36:55.012Z,92.44
2023-04-29T23:37:55.018Z,92.44
2023-04-29T23:38:54.982Z,92.44
2023-04-29T23:39:56.256Z,92.44
2023-04-29T23:40:54.965Z,92.65
2023-04-29T23:41:54.954Z,92.69
2023-04-29T23:42:54.938Z,92.59
2023-04-29T23:43:54.942Z,92.49
2023-04-29T23:44:54.914Z,92.59
2023-04-29T23:45:54.951Z,92.80
2023-04-29T23:46:54.892Z,93.11
2023-04-29T23:47:54.937Z,93.31
2023-04-29T23:48:54.873Z,93.41
2023-04-29T23:49:55.312Z,93.41
2023-04-29T23:50:54.847Z,93.46
2023-04-29T23:51:54.843Z,93.46
2023-04-29T23:52:54.837Z,93.46
2023-04-29T23:53:54.819Z,93.56
2023-04-29T23:54:54.809Z,93.46
2023-04-29T23:55:54.800Z,93.56
2023-04-29T23:56:54.789Z,93.56
2023-04-29T23:57:54.790Z,93.71
2023-04-29T23:58:54.777Z,93.91
2023-04-29T23:59:55.025Z,93.91
